Port Orford, OR

1:49 AM PDT on September 02, 2015 (GMT -0700)
Port Orford RV Village | | Change Station
CLOSE
Current Station
Personal Weather Station
Location: Port Orford, OR
Elevation: 47 ft
Nearby Weather Stations

Elev 47 ft 42.76 °N, 124.49 °W | Updated 5 seconds ago

Overcast
Overcast
61.0 °F
Feels Like 61.0 °F
N
0.0
Wind Variable Wind from SSW
Gusts 0.0 mph

Today
High -- | Low -- °F
--% Chance of Precip.
Yesterday
High -- | Low -- °F
Precip. -- in
6:43 AM 7:50 PM
Waning Gibbous, 82% visible
Pressure 29.94 in
Visibility 10.0 miles
Clouds Few 500 ft
Overcast 4200 ft
Dew Point 60 °F
Humidity 95%
Rainfall 0.02 in
Snow Depth Not available.
UV 0 out of 12
Pollen 6.00 out of 12
Air Quality Not available.
Flu Activity Not available.
METAR KOTH 020835Z 15003KT 10SM FEW005 OVC042 16/16 A2994 RMK AO1
Pressure 29.94 in
Visibility 10.0 miles
Clouds Few 500 ft
Overcast 4200 ft
Dew Point 60 °F
Humidity 95%
Rainfall 0.02 in
Snow Depth Not available.
UV 0 out of 12
Pollen 6.00 out of 12
Air Quality Not available.
Flu Activity Not available.
METAR KOTH 020835Z 15003KT 10SM FEW005 OVC042 16/16 A2994 RMK AO1

10-Day Weather Forecast

×

Almanac

Astronomy

Sep. 02, 2015 Rise Set
Actual Time
Civil Twilight
Nautical Twilight
Astronomical Twilight
Moon
Length of Visible Light
Length of Day
Tomorrow will be .
, % of the Moon is Illuminated

Today's Extremes

State Highs State Lows

Community

WunderPhotos

Upload Photos

1,851,728 photos uploaded!

WunderBlogs® & News

Nearby

Air Quality

  Air Quality AQ Index Pollutant
Not available.

Snow Depth

Station Depth Elevation

Earthquake Activity

City Distance Mag. Time & Date
Minimum magnitude displayed is 2.5.

Coastal Water Temperatures

Place Temperature

Stations

Nearby Weather Stations

Station Location Temp. Windchill Dew Point Humidity Wind Precip. Elev Updated Type